Main page
METAR-TAF:

METAR-TAF

Airports :

Avilés, Spain

Asturias Airport

latitude: 43-33N, longitude: 006-02W, elevation: 127 m

Current weather observation

The report was made 28 minutes ago, at 07:00 UTC
Calm wind
Temperature 9°C
Humidity 57%
Pressure 1008 hPa
Visibility 10 km or more
no clouds below 1500 m and no cumulonimbus

METAR: LEAS 220700Z 00000KT CAVOK 09/01 Q1008 NOSIG

Time: 08:28 (07:28 UTC)

Forecast

The report was made 5 hours and 28 minutes ago, at 02:00 UTC
Forecast valid from 22 at 03 UTC to 23 at 03 UTC
Wind 9 kt from the South/Southwest
Visibility 10 km or more
no clouds below 1500 m and no cumulonimbus
Probability 40% :
Temporary
from 22 at 12 UTC to 22 at 21 UTC
Wind 15 kt from the Southwest with gusts up to 27 kt

TAF: LEAS 220200Z 2203/2303 21009KT CAVOK TX20/2214Z TN08/2206Z PROB40 TEMPO 2212/2221 23015G27KT

Weather observations and forecasts of more than 4000 airports (METAR and TAF reports).

The available stations are represented by yellow and red dots on the map.

Hover mouse over dot to see the name of the station.

Then click to see weather observations and forecasts.

To change the map : click on the green buttons with a black cross to zoom in, on the green button with a dash to zoom out, or on the green arrows for adjacent maps.


METAR-TAF: